sensor_id;sensor_type;location;lat;lon;timestamp;pressure;altitude;pressure_sealevel;temperature;humidity
77631;BME280;66798;47.370;8.552;2023-11-19T06:59:20;96891.00;;;11.18;96.18
77631;BME280;66798;47.370;8.552;2023-11-19T07:01:46;96869.66;;;11.19;95.71
77631;BME280;66798;47.370;8.552;2023-11-19T07:04:12;96861.78;;;11.19;95.20
77631;BME280;66798;47.370;8.552;2023-11-19T07:06:38;96877.03;;;11.17;95.92
77631;BME280;66798;47.370;8.552;2023-11-19T07:09:06;96893.63;;;11.28;95.55
77631;BME280;66798;47.370;8.552;2023-11-19T07:11:43;96896.53;;;11.26;95.66
77631;BME280;66798;47.370;8.552;2023-11-19T07:14:10;96879.69;;;11.27;95.68
77631;BME280;66798;47.370;8.552;2023-11-19T07:16:37;96892.31;;;11.25;95.30
77631;BME280;66798;47.370;8.552;2023-11-19T07:19:04;96894.97;;;11.31;95.33
77631;BME280;66798;47.370;8.552;2023-11-19T07:21:30;96883.88;;;11.29;94.95
77631;BME280;66798;47.370;8.552;2023-11-19T07:23:56;96888.09;;;11.30;94.81
77631;BME280;66798;47.370;8.552;2023-11-19T07:26:22;96891.25;;;11.26;95.60
77631;BME280;66798;47.370;8.552;2023-11-19T07:28:49;96890.47;;;11.36;95.28
77631;BME280;66798;47.370;8.552;2023-11-19T07:31:15;96897.59;;;11.36;95.50
77631;BME280;66798;47.370;8.552;2023-11-19T07:33:40;96904.69;;;11.35;95.34
77631;BME280;66798;47.370;8.552;2023-11-19T07:36:10;96904.97;;;11.23;97.04
77631;BME280;66798;47.370;8.552;2023-11-19T07:38:36;96902.31;;;11.23;96.43
77631;BME280;66798;47.370;8.552;2023-11-19T07:41:02;96897.59;;;11.31;96.34
77631;BME280;66798;47.370;8.552;2023-11-19T07:43:27;96912.31;;;11.37;95.68
77631;BME280;66798;47.370;8.552;2023-11-19T07:45:53;96911.81;;;11.35;96.08
77631;BME280;66798;47.370;8.552;2023-11-19T07:48:18;96901.00;;;11.36;96.38
77631;BME280;66798;47.370;8.552;2023-11-19T07:50:52;96914.69;;;11.38;95.96
77631;BME280;66798;47.370;8.552;2023-11-19T07:53:18;96897.34;;;11.32;96.56
77631;BME280;66798;47.370;8.552;2023-11-19T07:55:44;96902.31;;;11.44;95.30
77631;BME280;66798;47.370;8.552;2023-11-19T07:58:10;96907.59;;;11.49;95.28
77631;BME280;66798;47.370;8.552;2023-11-19T08:00:36;96909.19;;;11.35;95.93
77631;BME280;66798;47.370;8.552;2023-11-19T08:03:03;96919.72;;;11.40;95.77
77631;BME280;66798;47.370;8.552;2023-11-19T08:05:29;96901.28;;;11.45;95.03
77631;BME280;66798;47.370;8.552;2023-11-19T08:07:55;96912.84;;;11.54;94.90
77631;BME280;66798;47.370;8.552;2023-11-19T08:10:20;96903.09;;;11.55;94.31
77631;BME280;66798;47.370;8.552;2023-11-19T08:12:45;96896.53;;;11.52;94.87
77631;BME280;66798;47.370;8.552;2023-11-19T08:15:11;96891.78;;;11.54;94.65
77631;BME280;66798;47.370;8.552;2023-11-19T08:17:37;96910.47;;;11.53;94.73
77631;BME280;66798;47.370;8.552;2023-11-19T08:20:03;96905.47;;;11.51;94.33
77631;BME280;66798;47.370;8.552;2023-11-19T08:22:30;96905.22;;;11.53;95.09
77631;BME280;66798;47.370;8.552;2023-11-19T08:24:56;96900.47;;;11.55;95.02
77631;BME280;66798;47.370;8.552;2023-11-19T08:27:22;96903.88;;;11.55;95.03
77631;BME280;66798;47.370;8.552;2023-11-19T08:29:54;96912.06;;;11.64;94.73
77631;BME280;66798;47.370;8.552;2023-11-19T08:32:24;96919.41;;;11.72;93.69
77631;BME280;66798;47.370;8.552;2023-11-19T08:34:49;96907.31;;;11.66;94.24
77631;BME280;66798;47.370;8.552;2023-11-19T08:37:14;96918.63;;;11.72;94.47
77631;BME280;66798;47.370;8.552;2023-11-19T08:39:40;96926.28;;;11.73;94.30
77631;BME280;66798;47.370;8.552;2023-11-19T08:42:07;96919.41;;;11.72;94.38
77631;BME280;66798;47.370;8.552;2023-11-19T08:44:32;96927.59;;;11.76;94.41
77631;BME280;66798;47.370;8.552;2023-11-19T08:46:58;96923.63;;;11.83;94.21
77631;BME280;66798;47.370;8.552;2023-11-19T08:49:23;96925.47;;;11.83;93.64
77631;BME280;66798;47.370;8.552;2023-11-19T08:51:49;96914.94;;;11.83;93.37
77631;BME280;66798;47.370;8.552;2023-11-19T08:54:14;96914.69;;;11.89;93.44
77631;BME280;66798;47.370;8.552;2023-11-19T08:56:40;96911.25;;;11.94;93.10
77631;BME280;66798;47.370;8.552;2023-11-19T08:59:05;96928.13;;;11.93;93.28
77631;BME280;66798;47.370;8.552;2023-11-19T09:01:31;96927.34;;;11.93;93.10
77631;BME280;66798;47.370;8.552;2023-11-19T09:03:56;96932.06;;;11.96;92.54
77631;BME280;66798;47.370;8.552;2023-11-19T09:06:22;96922.84;;;12.08;92.28
77631;BME280;66798;47.370;8.552;2023-11-19T09:08:48;96924.66;;;12.08;92.50
77631;BME280;66798;47.370;8.552;2023-11-19T09:11:14;96933.66;;;12.02;91.47
77631;BME280;66798;47.370;8.552;2023-11-19T09:13:39;96936.78;;;12.09;92.52
77631;BME280;66798;47.370;8.552;2023-11-19T09:16:05;96934.94;;;12.15;92.39
77631;BME280;66798;47.370;8.552;2023-11-19T09:18:30;96930.44;;;12.10;91.42
77631;BME280;66798;47.370;8.552;2023-11-19T09:20:57;96927.78;;;12.15;91.80
77631;BME280;66798;47.370;8.552;2023-11-19T09:23:22;96922.00;;;12.23;91.82
77631;BME280;66798;47.370;8.552;2023-11-19T09:25:49;96942.28;;;12.28;91.82
77631;BME280;66798;47.370;8.552;2023-11-19T09:28:15;96928.81;;;12.24;90.60
77631;BME280;66798;47.370;8.552;2023-11-19T09:30:40;96924.03;;;12.37;91.63
77631;BME280;66798;47.370;8.552;2023-11-19T09:33:06;96924.81;;;12.42;92.43
77631;BME280;66798;47.370;8.552;2023-11-19T09:35:31;96935.09;;;12.44;92.49
77631;BME280;66798;47.370;8.552;2023-11-19T09:37:56;96943.78;;;12.54;91.47
77631;BME280;66798;47.370;8.552;2023-11-19T09:40:22;96932.66;;;12.58;91.20
77631;BME280;66798;47.370;8.552;2023-11-19T09:42:48;96935.81;;;12.60;91.39
77631;BME280;66798;47.370;8.552;2023-11-19T09:45:15;96929.47;;;12.66;91.25
77631;BME280;66798;47.370;8.552;2023-11-19T09:47:46;96927.06;;;12.69;90.53
77631;BME280;66798;47.370;8.552;2023-11-19T09:50:17;96924.91;;;12.77;90.76
77631;BME280;66798;47.370;8.552;2023-11-19T09:52:47;96924.06;;;12.86;91.16
77631;BME280;66798;47.370;8.552;2023-11-19T09:55:13;96937.78;;;12.88;92.42
77631;BME280;66798;47.370;8.552;2023-11-19T09:57:39;96935.38;;;12.97;90.60
77631;BME280;66798;47.370;8.552;2023-11-19T10:00:07;96923.53;;;12.89;90.45
77631;BME280;66798;47.370;8.552;2023-11-19T10:02:34;96924.78;;;13.02;89.76
77631;BME280;66798;47.370;8.552;2023-11-19T10:05:06;96928.16;;;13.08;89.56
77631;BME280;66798;47.370;8.552;2023-11-19T10:07:32;96928.00;;;12.94;89.83
77631;BME280;66798;47.370;8.552;2023-11-19T10:10:02;96928.81;;;12.89;90.05
77631;BME280;66798;47.370;8.552;2023-11-19T10:12:31;96930.63;;;12.94;91.40
77631;BME280;66798;47.370;8.552;2023-11-19T10:14:57;96924.00;;;12.96;91.48
77631;BME280;66798;47.370;8.552;2023-11-19T10:17:32;96924.81;;;12.97;91.18
77631;BME280;66798;47.370;8.552;2023-11-19T10:19:58;96929.06;;;12.93;92.55
77631;BME280;66798;47.370;8.552;2023-11-19T10:22:24;96914.53;;;12.95;92.45
77631;BME280;66798;47.370;8.552;2023-11-19T10:24:50;96908.75;;;12.88;90.99
77631;BME280;66798;47.370;8.552;2023-11-19T10:27:15;96922.94;;;13.03;92.15
77631;BME280;66798;47.370;8.552;2023-11-19T10:29:45;96907.03;;;13.08;92.35
77631;BME280;66798;47.370;8.552;2023-11-19T10:32:12;96922.41;;;13.01;91.25
77631;BME280;66798;47.370;8.552;2023-11-19T10:34:39;96889.13;;;13.05;89.36
77631;BME280;66798;47.370;8.552;2023-11-19T10:37:05;96903.88;;;13.06;89.43
77631;BME280;66798;47.370;8.552;2023-11-19T10:39:52;96894.34;;;13.10;90.15
77631;BME280;66798;47.370;8.552;2023-11-19T10:42:19;96910.66;;;13.22;91.12
77631;BME280;66798;47.370;8.552;2023-11-19T10:44:45;96926.25;;;13.18;89.43
77631;BME280;66798;47.370;8.552;2023-11-19T10:47:13;96913.28;;;13.22;89.66
77631;BME280;66798;47.370;8.552;2023-11-19T10:49:39;96916.75;;;13.17;89.73
77631;BME280;66798;47.370;8.552;2023-11-19T10:52:08;96918.81;;;13.26;91.85
77631;BME280;66798;47.370;8.552;2023-11-19T10:54:34;96936.56;;;13.15;90.39
77631;BME280;66798;47.370;8.552;2023-11-19T10:57:02;96899.28;;;13.22;91.03
77631;BME280;66798;47.370;8.552;2023-11-19T10:59:31;96906.66;;;13.30;90.87
77631;BME280;66798;47.370;8.552;2023-11-19T11:02:00;96905.25;;;13.43;91.71
77631;BME280;66798;47.370;8.552;2023-11-19T11:04:32;96901.56;;;13.38;90.29
77631;BME280;66798;47.370;8.552;2023-11-19T11:06:59;96897.38;;;13.37;91.61
77631;BME280;66798;47.370;8.552;2023-11-19T11:09:30;96901.78;;;13.47;90.89
77631;BME280;66798;47.370;8.552;2023-11-19T11:11:57;96898.63;;;13.45;90.58
77631;BME280;66798;47.370;8.552;2023-11-19T11:14:24;96899.78;;;13.29;90.10
77631;BME280;66798;47.370;8.552;2023-11-19T11:16:53;96899.50;;;13.35;90.52
77631;BME280;66798;47.370;8.552;2023-11-19T11:19:19;96892.31;;;13.41;91.28
77631;BME280;66798;47.370;8.552;2023-11-19T11:21:51;96883.69;;;13.30;92.43
77631;BME280;66798;47.370;8.552;2023-11-19T11:27:39;96889.47;;;13.32;91.90
77631;BME280;66798;47.370;8.552;2023-11-19T11:30:31;96884.06;;;13.48;92.21
77631;BME280;66798;47.370;8.552;2023-11-19T11:36:20;96868.06;;;13.34;88.87
77631;BME280;66798;47.370;8.552;2023-11-19T11:38:49;96868.81;;;13.40;89.36
77631;BME280;66798;47.370;8.552;2023-11-19T11:41:22;96869.75;;;13.49;88.80
77631;BME280;66798;47.370;8.552;2023-11-19T11:43:52;96866.03;;;13.55;88.62
77631;BME280;66798;47.370;8.552;2023-11-19T11:49:08;96871.88;;;13.52;88.99
77631;BME280;66798;47.370;8.552;2023-11-19T11:54:08;96871.53;;;13.58;87.20
77631;BME280;66798;47.370;8.552;2023-11-19T11:56:37;96869.84;;;13.68;88.37
77631;BME280;66798;47.370;8.552;2023-11-19T11:59:07;96864.34;;;13.64;88.67
77631;BME280;66798;47.370;8.552;2023-11-19T12:01:32;96858.97;;;13.74;88.41
77631;BME280;66798;47.370;8.552;2023-11-19T12:03:58;96864.34;;;13.64;89.05
77631;BME280;66798;47.370;8.552;2023-11-19T12:06:23;96854.81;;;13.68;89.40
77631;BME280;66798;47.370;8.552;2023-11-19T12:08:49;96852.75;;;13.60;89.45
77631;BME280;66798;47.370;8.552;2023-11-19T12:11:16;96867.78;;;13.65;89.00
77631;BME280;66798;47.370;8.552;2023-11-19T12:13:55;96839.16;;;13.72;88.80
77631;BME280;66798;47.370;8.552;2023-11-19T12:16:23;96833.41;;;13.65;90.70
77631;BME280;66798;47.370;8.552;2023-11-19T12:18:49;96821.94;;;13.74;90.12
77631;BME280;66798;47.370;8.552;2023-11-19T12:21:28;96813.44;;;13.77;89.58
77631;BME280;66798;47.370;8.552;2023-11-19T12:23:57;96822.91;;;13.84;89.05
77631;BME280;66798;47.370;8.552;2023-11-19T12:26:32;96824.06;;;13.96;87.93
77631;BME280;66798;47.370;8.552;2023-11-19T12:29:00;96828.53;;;14.01;88.78
77631;BME280;66798;47.370;8.552;2023-11-19T12:31:25;96818.25;;;13.75;87.37
77631;BME280;66798;47.370;8.552;2023-11-19T12:33:51;96825.44;;;13.94;86.55
77631;BME280;66798;47.370;8.552;2023-11-19T12:36:19;96821.50;;;13.91;85.84
77631;BME280;66798;47.370;8.552;2023-11-19T12:38:45;96815.09;;;13.97;86.96
77631;BME280;66798;47.370;8.552;2023-11-19T12:41:11;96812.84;;;13.86;85.71
77631;BME280;66798;47.370;8.552;2023-11-19T12:43:38;96819.63;;;13.92;85.95
77631;BME280;66798;47.370;8.552;2023-11-19T12:46:23;96822.97;;;13.78;85.31
77631;BME280;66798;47.370;8.552;2023-11-19T12:48:49;96819.41;;;13.88;87.09
77631;BME280;66798;47.370;8.552;2023-11-19T12:51:15;96817.75;;;13.73;87.14
77631;BME280;66798;47.370;8.552;2023-11-19T12:53:51;96823.19;;;13.82;87.80
77631;BME280;66798;47.370;8.552;2023-11-19T12:56:20;96823.34;;;13.91;87.50
77631;BME280;66798;47.370;8.552;2023-11-19T12:58:47;96826.72;;;13.96;86.95
77631;BME280;66798;47.370;8.552;2023-11-19T13:01:17;96814.97;;;14.08;86.89
77631;BME280;66798;47.370;8.552;2023-11-19T13:03:43;96818.44;;;14.03;85.73
77631;BME280;66798;47.370;8.552;2023-11-19T13:06:11;96803.22;;;13.95;85.65
77631;BME280;66798;47.370;8.552;2023-11-19T13:08:42;96791.63;;;13.91;86.15
77631;BME280;66798;47.370;8.552;2023-11-19T13:11:09;96799.69;;;13.80;85.43
77631;BME280;66798;47.370;8.552;2023-11-19T13:13:54;96800.66;;;13.85;85.22
77631;BME280;66798;47.370;8.552;2023-11-19T13:16:19;96795.91;;;13.87;85.37
77631;BME280;66798;47.370;8.552;2023-11-19T13:18:45;96776.84;;;13.90;85.12
77631;BME280;66798;47.370;8.552;2023-11-19T13:21:10;96774.34;;;13.98;83.96
77631;BME280;66798;47.370;8.552;2023-11-19T13:23:36;96784.88;;;13.79;84.06
77631;BME280;66798;47.370;8.552;2023-11-19T13:26:01;96786.22;;;13.77;85.22
77631;BME280;66798;47.370;8.552;2023-11-19T13:28:26;96791.31;;;13.73;83.90
77631;BME280;66798;47.370;8.552;2023-11-19T13:30:53;96792.81;;;13.79;85.53
77631;BME280;66798;47.370;8.552;2023-11-19T13:33:18;96796.69;;;13.87;84.74
77631;BME280;66798;47.370;8.552;2023-11-19T13:35:44;96805.50;;;13.77;84.38
77631;BME280;66798;47.370;8.552;2023-11-19T13:38:09;96802.66;;;13.74;83.33
77631;BME280;66798;47.370;8.552;2023-11-19T13:40:35;96807.22;;;13.68;84.33
77631;BME280;66798;47.370;8.552;2023-11-19T13:43:01;96807.63;;;13.80;84.11
77631;BME280;66798;47.370;8.552;2023-11-19T13:45:26;96811.69;;;13.68;84.27
77631;BME280;66798;47.370;8.552;2023-11-19T13:47:51;96807.03;;;13.84;84.14
77631;BME280;66798;47.370;8.552;2023-11-19T13:50:17;96808.47;;;13.76;84.42
77631;BME280;66798;47.370;8.552;2023-11-19T13:52:44;96787.41;;;13.66;83.91
77631;BME280;66798;47.370;8.552;2023-11-19T13:55:12;96793.00;;;13.64;83.69
77631;BME280;66798;47.370;8.552;2023-11-19T13:57:38;96795.25;;;13.76;84.27
77631;BME280;66798;47.370;8.552;2023-11-19T14:00:06;96790.66;;;13.57;84.09
77631;BME280;66798;47.370;8.552;2023-11-19T14:02:33;96772.91;;;13.63;84.08
77631;BME280;66798;47.370;8.552;2023-11-19T14:04:58;96794.53;;;13.65;82.93
77631;BME280;66798;47.370;8.552;2023-11-19T14:07:24;96791.91;;;13.65;83.72
77631;BME280;66798;47.370;8.552;2023-11-19T14:09:49;96794.53;;;13.65;83.72
77631;BME280;66798;47.370;8.552;2023-11-19T14:12:15;96790.47;;;13.54;84.58
77631;BME280;66798;47.370;8.552;2023-11-19T14:14:41;96799.78;;;13.70;84.75
77631;BME280;66798;47.370;8.552;2023-11-19T14:17:07;96800.28;;;13.72;83.84
77631;BME280;66798;47.370;8.552;2023-11-19T14:19:33;96800.47;;;13.81;83.82
77631;BME280;66798;47.370;8.552;2023-11-19T14:21:59;96797.69;;;13.67;83.69
77631;BME280;66798;47.370;8.552;2023-11-19T14:24:25;96793.38;;;13.76;83.60
77631;BME280;66798;47.370;8.552;2023-11-19T14:26:51;96795.97;;;13.57;84.53
77631;BME280;66798;47.370;8.552;2023-11-19T14:29:18;96797.53;;;13.58;84.87
77631;BME280;66798;47.370;8.552;2023-11-19T14:31:43;96806.25;;;13.59;85.42
77631;BME280;66798;47.370;8.552;2023-11-19T14:34:09;96795.31;;;13.71;84.09
77631;BME280;66798;47.370;8.552;2023-11-19T14:36:34;96805.56;;;13.72;85.16
77631;BME280;66798;47.370;8.552;2023-11-19T14:39:00;96803.88;;;13.81;84.49
77631;BME280;66798;47.370;8.552;2023-11-19T14:41:26;96795.44;;;13.79;85.51
77631;BME280;66798;47.370;8.552;2023-11-19T14:43:51;96801.03;;;13.78;84.11
77631;BME280;66798;47.370;8.552;2023-11-19T14:46:16;96806.25;;;13.83;84.26
77631;BME280;66798;47.370;8.552;2023-11-19T14:48:42;96788.88;;;13.77;84.20
77631;BME280;66798;47.370;8.552;2023-11-19T14:51:07;96794.16;;;13.77;82.90
77631;BME280;66798;47.370;8.552;2023-11-19T14:53:34;96786.91;;;13.64;83.72
77631;BME280;66798;47.370;8.552;2023-11-19T14:56:00;96796.28;;;13.75;84.49
77631;BME280;66798;47.370;8.552;2023-11-19T14:58:26;96800.91;;;13.64;84.65
77631;BME280;66798;47.370;8.552;2023-11-19T15:00:52;96807.56;;;13.62;83.99
77631;BME280;66798;47.370;8.552;2023-11-19T15:03:17;96804.16;;;13.56;84.08
77631;BME280;66798;47.370;8.552;2023-11-19T15:05:45;96800.06;;;13.45;84.81
77631;BME280;66798;47.370;8.552;2023-11-19T15:08:11;96782.91;;;13.42;84.43
77631;BME280;66798;47.370;8.552;2023-11-19T15:10:37;96795.50;;;13.50;84.25
77631;BME280;66798;47.370;8.552;2023-11-19T15:13:03;96785.72;;;13.51;83.65
77631;BME280;66798;47.370;8.552;2023-11-19T15:15:29;96784.75;;;13.42;84.92
77631;BME280;66798;47.370;8.552;2023-11-19T15:17:55;96773.13;;;13.43;84.42
77631;BME280;66798;47.370;8.552;2023-11-19T15:20:20;96781.94;;;13.33;85.11
77631;BME280;66798;47.370;8.552;2023-11-19T15:22:46;96795.63;;;13.40;84.61
77631;BME280;66798;47.370;8.552;2023-11-19T15:25:12;96787.19;;;13.38;85.07
77631;BME280;66798;47.370;8.552;2023-11-19T15:27:38;96795.16;;;13.33;85.77
77631;BME280;66798;47.370;8.552;2023-11-19T15:30:04;96797.00;;;13.32;87.63
77631;BME280;66798;47.370;8.552;2023-11-19T15:32:30;96805.16;;;13.36;87.84
77631;BME280;66798;47.370;8.552;2023-11-19T15:34:57;96806.41;;;13.44;87.26
77631;BME280;66798;47.370;8.552;2023-11-19T15:37:23;96799.59;;;13.37;87.22
77631;BME280;66798;47.370;8.552;2023-11-19T15:39:49;96795.69;;;13.30;88.12
77631;BME280;66798;47.370;8.552;2023-11-19T15:42:17;96797.47;;;13.40;87.69
77631;BME280;66798;47.370;8.552;2023-11-19T15:44:42;96786.66;;;13.36;89.39
77631;BME280;66798;47.370;8.552;2023-11-19T15:47:09;96800.88;;;13.11;90.71
77631;BME280;66798;47.370;8.552;2023-11-19T15:49:34;96809.72;;;13.25;90.52
77631;BME280;66798;47.370;8.552;2023-11-19T15:52:00;96797.06;;;13.22;91.80
77631;BME280;66798;47.370;8.552;2023-11-19T15:54:25;96794.09;;;13.00;92.99
77631;BME280;66798;47.370;8.552;2023-11-19T15:56:51;96795.16;;;12.99;93.69
77631;BME280;66798;47.370;8.552;2023-11-19T15:59:16;96791.25;;;12.91;94.22
77631;BME280;66798;47.370;8.552;2023-11-19T16:01:42;96796.06;;;12.84;94.50
77631;BME280;66798;47.370;8.552;2023-11-19T16:04:07;96782.28;;;12.92;94.98
77631;BME280;66798;47.370;8.552;2023-11-19T16:06:34;96774.16;;;12.83;95.67
77631;BME280;66798;47.370;8.552;2023-11-19T16:09:00;96775.19;;;12.87;95.45
77631;BME280;66798;47.370;8.552;2023-11-19T16:11:26;96777.91;;;12.77;95.39
77631;BME280;66798;47.370;8.552;2023-11-19T16:13:51;96780.81;;;12.75;95.41
77631;BME280;66798;47.370;8.552;2023-11-19T16:16:17;96782.16;;;12.73;95.33
77631;BME280;66798;47.370;8.552;2023-11-19T16:18:42;96790.09;;;12.68;95.34
77631;BME280;66798;47.370;8.552;2023-11-19T16:21:08;96788.41;;;12.87;94.61
77631;BME280;66798;47.370;8.552;2023-11-19T16:23:33;96795.84;;;12.80;95.16
77631;BME280;66798;47.370;8.552;2023-11-19T16:26:00;96789.53;;;12.76;95.17
77631;BME280;66798;47.370;8.552;2023-11-19T16:28:26;96796.88;;;12.79;95.35
77631;BME280;66798;47.370;8.552;2023-11-19T16:30:52;96799.72;;;12.88;94.77
77631;BME280;66798;47.370;8.552;2023-11-19T16:33:17;96787.91;;;12.80;94.88
77631;BME280;66798;47.370;8.552;2023-11-19T16:35:43;96796.31;;;12.87;94.38
77631;BME280;66798;47.370;8.552;2023-11-19T16:38:08;96794.44;;;12.88;93.68
77631;BME280;66798;47.370;8.552;2023-11-19T16:40:34;96794.44;;;12.88;94.00
77631;BME280;66798;47.370;8.552;2023-11-19T16:43:05;96792.63;;;12.83;94.61
77631;BME280;66798;47.370;8.552;2023-11-19T16:45:31;96801.16;;;12.70;95.42
77631;BME280;66798;47.370;8.552;2023-11-19T16:47:57;96805.31;;;12.81;95.05
77631;BME280;66798;47.370;8.552;2023-11-19T16:50:22;96798.00;;;12.68;95.51
77631;BME280;66798;47.370;8.552;2023-11-19T16:52:48;96797.41;;;12.81;95.44
77631;BME280;66798;47.370;8.552;2023-11-19T16:55:13;96792.59;;;12.88;94.77
77631;BME280;66798;47.370;8.552;2023-11-19T16:57:42;96794.75;;;12.81;95.94
77631;BME280;66798;47.370;8.552;2023-11-19T17:00:10;96775.00;;;12.79;95.53
77631;BME280;66798;47.370;8.552;2023-11-19T17:02:39;96780.81;;;12.75;95.69
77631;BME280;66798;47.370;8.552;2023-11-19T17:05:08;96791.44;;;12.70;96.78
77631;BME280;66798;47.370;8.552;2023-11-19T17:07:34;96791.22;;;12.62;96.35
77631;BME280;66798;47.370;8.552;2023-11-19T17:10:00;96798.38;;;12.56;95.08
77631;BME280;66798;47.370;8.552;2023-11-19T17:12:25;96794.75;;;12.42;91.61
77631;BME280;66798;47.370;8.552;2023-11-19T17:14:51;96784.59;;;12.20;90.01
77631;BME280;66798;47.370;8.552;2023-11-19T17:17:18;96781.91;;;12.30;89.34
77631;BME280;66798;47.370;8.552;2023-11-19T17:19:43;96794.31;;;12.24;88.86
77631;BME280;66798;47.370;8.552;2023-11-19T17:22:09;96784.81;;;12.28;90.57
77631;BME280;66798;47.370;8.552;2023-11-19T17:24:34;96791.41;;;12.31;92.15
77631;BME280;66798;47.370;8.552;2023-11-19T17:27:00;96799.81;;;12.33;93.43
77631;BME280;66798;47.370;8.552;2023-11-19T17:29:25;96798.53;;;12.30;93.90
77631;BME280;66798;47.370;8.552;2023-11-19T17:31:51;96812.50;;;12.31;95.05
77631;BME280;66798;47.370;8.552;2023-11-19T17:34:17;96822.78;;;12.32;96.23
77631;BME280;66798;47.370;8.552;2023-11-19T17:36:43;96811.41;;;12.37;96.27
77631;BME280;66798;47.370;8.552;2023-11-19T17:39:09;96820.09;;;12.43;95.80
77631;BME280;66798;47.370;8.552;2023-11-19T17:41:34;96807.94;;;12.42;95.73
77631;BME280;66798;47.370;8.552;2023-11-19T17:43:59;96810.56;;;12.42;95.77
77631;BME280;66798;47.370;8.552;2023-11-19T17:46:25;96804.75;;;12.50;95.07
77631;BME280;66798;47.370;8.552;2023-11-19T17:48:50;96819.50;;;12.51;93.75
77631;BME280;66798;47.370;8.552;2023-11-19T17:51:17;96833.19;;;12.58;93.77
77631;BME280;66798;47.370;8.552;2023-11-19T17:53:44;96831.38;;;12.48;94.28
77631;BME280;66798;47.370;8.552;2023-11-19T17:56:10;96815.28;;;12.50;94.13
77631;BME280;66798;47.370;8.552;2023-11-19T17:58:36;96818.44;;;12.52;93.78
77631;BME280;66798;47.370;8.552;2023-11-19T18:01:03;96814.75;;;12.53;93.34
77631;BME280;66798;47.370;8.552;2023-11-19T18:03:28;96794.66;;;12.57;93.45
77631;BME280;66798;47.370;8.552;2023-11-19T18:05:54;96799.94;;;12.57;92.70
77631;BME280;66798;47.370;8.552;2023-11-19T18:08:19;96798.69;;;12.49;92.62
77631;BME280;66798;47.370;8.552;2023-11-19T18:10:46;96786.00;;;12.51;92.23
77631;BME280;66798;47.370;8.552;2023-11-19T18:13:12;96793.63;;;12.53;91.08
77631;BME280;66798;47.370;8.552;2023-11-19T18:15:38;96813.13;;;12.57;91.97
77631;BME280;66798;47.370;8.552;2023-11-19T18:18:04;96798.09;;;12.58;91.13
77631;BME280;66798;47.370;8.552;2023-11-19T18:20:29;96807.09;;;12.57;91.10
77631;BME280;66798;47.370;8.552;2023-11-19T18:22:55;96787.00;;;12.56;91.49
77631;BME280;66798;47.370;8.552;2023-11-19T18:25:20;96810.75;;;12.56;90.77
77631;BME280;66798;47.370;8.552;2023-11-19T18:27:47;96818.41;;;12.57;91.48
77631;BME280;66798;47.370;8.552;2023-11-19T18:30:12;96796.22;;;12.63;89.95
77631;BME280;66798;47.370;8.552;2023-11-19T18:32:40;96801.78;;;12.62;90.84
77631;BME280;66798;47.370;8.552;2023-11-19T18:35:10;96795.97;;;12.60;90.39
77631;BME280;66798;47.370;8.552;2023-11-19T18:37:40;96791.25;;;12.57;90.22
77631;BME280;66798;47.370;8.552;2023-11-19T18:40:07;96803.38;;;12.58;90.42
77631;BME280;66798;47.370;8.552;2023-11-19T18:42:38;96816.00;;;12.61;90.79
77631;BME280;66798;47.370;8.552;2023-11-19T18:45:05;96817.81;;;12.65;89.90
77631;BME280;66798;47.370;8.552;2023-11-19T18:47:32;96798.88;;;12.63;89.94
77631;BME280;66798;47.370;8.552;2023-11-19T18:49:59;96808.91;;;12.61;89.41
77631;BME280;66798;47.370;8.552;2023-11-19T18:52:25;96795.38;;;12.68;89.01
77631;BME280;66798;47.370;8.552;2023-11-19T18:54:51;96785.91;;;12.67;88.82
77631;BME280;66798;47.370;8.552;2023-11-19T18:57:16;96784.41;;;12.50;90.36
77631;BME280;66798;47.370;8.552;2023-11-19T18:59:41;96784.66;;;12.54;89.24
77631;BME280;66798;47.370;8.552;2023-11-19T19:02:07;96791.00;;;12.53;89.21
77631;BME280;66798;47.370;8.552;2023-11-19T19:04:34;96787.06;;;12.50;89.11
77631;BME280;66798;47.370;8.552;2023-11-19T19:07:00;96819.00;;;12.49;89.66
77631;BME280;66798;47.370;8.552;2023-11-19T19:09:28;96815.53;;;12.53;88.74
77631;BME280;66798;47.370;8.552;2023-11-19T19:11:54;96816.53;;;12.63;87.96
77631;BME280;66798;47.370;8.552;2023-11-19T19:14:19;96818.09;;;12.69;87.44
77631;BME280;66798;47.370;8.552;2023-11-19T19:16:44;96783.56;;;12.60;88.20
77631;BME280;66798;47.370;8.552;2023-11-19T19:19:10;96799.13;;;12.62;87.69
77631;BME280;66798;47.370;8.552;2023-11-19T19:21:35;96798.31;;;12.66;86.96
77631;BME280;66798;47.370;8.552;2023-11-19T19:24:01;96815.50;;;12.59;87.85
77631;BME280;66798;47.370;8.552;2023-11-19T19:26:34;96803.31;;;12.63;87.32
77631;BME280;66798;47.370;8.552;2023-11-19T19:28:59;96792.03;;;12.57;87.91
77631;BME280;66798;47.370;8.552;2023-11-19T19:31:24;96813.09;;;12.62;87.45
77631;BME280;66798;47.370;8.552;2023-11-19T19:33:51;96812.88;;;12.59;87.93
77631;BME280;66798;47.370;8.552;2023-11-19T19:36:25;96817.03;;;12.65;86.91
77631;BME280;66798;47.370;8.552;2023-11-19T19:38:57;96812.81;;;12.69;87.00
77631;BME280;66798;47.370;8.552;2023-11-19T19:41:22;96819.16;;;12.63;87.49
77631;BME280;66798;47.370;8.552;2023-11-19T19:43:49;96820.97;;;12.67;86.90
77631;BME280;66798;47.370;8.552;2023-11-19T19:46:14;96832.09;;;12.64;86.63
77631;BME280;66798;47.370;8.552;2023-11-19T19:48:40;96831.06;;;12.60;86.76
77631;BME280;66798;47.370;8.552;2023-11-19T19:51:07;96841.88;;;12.64;86.62
77631;BME280;66798;47.370;8.552;2023-11-19T19:53:35;96842.72;;;12.54;87.22
77631;BME280;66798;47.370;8.552;2023-11-19T19:56:04;96840.13;;;12.49;87.37
77631;BME280;66798;47.370;8.552;2023-11-19T19:58:30;96848.25;;;12.52;87.46
77631;BME280;66798;47.370;8.552;2023-11-19T20:00:55;96841.94;;;12.48;86.89
77631;BME280;66798;47.370;8.552;2023-11-19T20:03:21;96850.47;;;12.35;88.47
77631;BME280;66798;47.370;8.552;2023-11-19T20:05:46;96855.75;;;12.35;88.05
77631;BME280;66798;47.370;8.552;2023-11-19T20:08:12;96859.13;;;12.41;88.04